createdAt,value
2022-11-19T00:02:13.807Z,6.95
2022-11-19T00:04:42.784Z,8.02
2022-11-19T00:07:11.841Z,10.35
2022-11-19T00:09:42.217Z,8.35
2022-11-19T00:12:29.101Z,11.33
2022-11-19T00:14:58.159Z,15.27
2022-11-19T00:17:27.159Z,10.07
2022-11-19T00:19:56.157Z,8.35
2022-11-19T00:22:25.820Z,10.68
2022-11-19T00:24:56.274Z,11.98
2022-11-19T00:27:25.359Z,9.05
2022-11-19T00:29:54.368Z,4.55
2022-11-19T00:32:23.479Z,8.93
2022-11-19T00:34:52.454Z,6.32
2022-11-19T00:37:21.468Z,9.73
2022-11-19T00:39:50.449Z,5.47
2022-11-19T00:42:21.496Z,9.70
2022-11-19T00:44:50.521Z,8.25
2022-11-19T00:47:19.489Z,10.88
2022-11-19T00:49:48.459Z,13.20
2022-11-19T00:52:17.388Z,10.07
2022-11-19T00:54:46.434Z,8.70
2022-11-19T00:57:15.505Z,11.40
2022-11-19T00:59:45.932Z,10.40
2022-11-19T01:02:14.922Z,12.20
2022-11-19T01:04:44.031Z,7.68
2022-11-19T01:07:13.134Z,10.00
2022-11-19T01:09:42.179Z,12.40
2022-11-19T01:12:11.266Z,8.52
2022-11-19T01:14:40.289Z,6.90
2022-11-19T01:17:10.642Z,9.80
2022-11-19T01:19:39.704Z,7.30
2022-11-19T01:22:08.663Z,8.23
2022-11-19T01:24:37.670Z,12.65
2022-11-19T01:27:06.682Z,12.18
2022-11-19T01:29:35.688Z,8.52
2022-11-19T01:32:04.768Z,10.45
2022-11-19T01:34:35.158Z,7.55
2022-11-19T01:37:04.188Z,11.10
2022-11-19T01:39:33.333Z,6.68
2022-11-19T01:42:02.473Z,10.55
2022-11-19T01:45:01.845Z,14.10
2022-11-19T01:47:30.992Z,11.07
2022-11-19T01:50:01.769Z,10.27
2022-11-19T01:52:30.787Z,9.02
2022-11-19T01:55:01.946Z,10.35
2022-11-19T01:57:30.922Z,6.18
2022-11-19T02:00:03.036Z,10.52
2022-11-19T02:02:34.762Z,5.47
2022-11-19T02:05:06.105Z,8.80
2022-11-19T02:10:05.670Z,9.05
2022-11-19T02:12:47.014Z,11.43
2022-11-19T02:15:37.612Z,11.20
2022-11-19T02:18:35.731Z,7.10
2022-11-19T02:21:21.780Z,7.38
2022-11-19T02:24:20.276Z,11.38
2022-11-19T02:27:12.117Z,8.82
2022-11-19T02:30:11.908Z,6.82
2022-11-19T02:33:01.472Z,7.35
2022-11-19T02:35:53.792Z,8.90
2022-11-19T02:38:32.329Z,10.43
2022-11-19T02:41:28.109Z,4.72
2022-11-19T02:44:17.391Z,7.28
2022-11-19T02:46:50.185Z,8.80
2022-11-19T02:49:22.098Z,13.45
2022-11-19T02:51:51.586Z,10.10
2022-11-19T02:54:20.723Z,11.73
2022-11-19T02:56:52.997Z,3.67
2022-11-19T02:59:44.609Z,5.65
2022-11-19T03:05:03.684Z,5.70
2022-11-19T03:07:32.821Z,9.53
2022-11-19T03:10:06.269Z,10.65
2022-11-19T03:12:46.225Z,12.35
2022-11-19T03:15:43.983Z,5.63
2022-11-19T03:18:17.805Z,12.23
2022-11-19T03:20:52.892Z,9.63
2022-11-19T03:23:26.356Z,5.03
2022-11-19T03:26:00.110Z,9.50
2022-11-19T03:28:35.159Z,10.23
2022-11-19T03:31:06.307Z,7.88
2022-11-19T03:33:41.304Z,7.18
2022-11-19T03:36:14.048Z,7.90
2022-11-19T03:38:47.371Z,7.05
2022-11-19T03:41:23.992Z,5.32
2022-11-19T03:43:57.916Z,11.35
2022-11-19T03:46:28.829Z,7.05
2022-11-19T03:49:01.449Z,6.03
2022-11-19T03:51:39.247Z,9.77
2022-11-19T03:54:08.714Z,9.43
2022-11-19T03:56:40.798Z,12.27
2022-11-19T03:59:12.335Z,7.75
2022-11-19T04:01:41.662Z,10.15
2022-11-19T04:04:29.218Z,7.18
2022-11-19T04:06:58.247Z,6.75
2022-11-19T04:09:27.289Z,12.40
2022-11-19T04:11:56.227Z,13.30
2022-11-19T04:14:25.287Z,14.95
2022-11-19T04:16:54.467Z,15.90
2022-11-19T04:19:25.103Z,13.23
2022-11-19T04:21:54.157Z,19.60
2022-11-19T04:24:23.125Z,14.75
2022-11-19T04:26:52.114Z,16.85
2022-11-19T04:29:21.562Z,24.65
2022-11-19T04:31:50.922Z,17.80
2022-11-19T04:34:20.075Z,11.15
2022-11-19T04:36:50.466Z,10.40
2022-11-19T04:39:19.761Z,10.20
2022-11-19T04:41:49.096Z,9.73
2022-11-19T04:44:18.116Z,9.20
2022-11-19T04:46:47.114Z,8.35
2022-11-19T04:49:16.135Z,8.65
2022-11-19T04:51:45.107Z,9.57
2022-11-19T04:54:15.485Z,8.43
2022-11-19T04:56:44.532Z,5.77
2022-11-19T04:59:13.489Z,3.53
2022-11-19T05:01:42.491Z,3.47
2022-11-19T05:04:11.746Z,3.70
2022-11-19T05:06:40.898Z,6.15
2022-11-19T05:09:10.058Z,6.47
2022-11-19T05:11:40.485Z,7.43
2022-11-19T05:14:09.810Z,7.78
2022-11-19T05:16:38.773Z,6.97
2022-11-19T05:19:08.044Z,6.93
2022-11-19T05:21:37.027Z,5.63
2022-11-19T05:24:06.617Z,5.35
2022-11-19T05:26:35.629Z,7.70
2022-11-19T05:29:05.994Z,4.00
2022-11-19T05:31:35.110Z,8.02
2022-11-19T05:34:04.189Z,4.43
2022-11-19T05:36:33.191Z,6.10
2022-11-19T05:39:02.199Z,5.03
2022-11-19T05:41:31.466Z,3.40
2022-11-19T05:44:00.453Z,5.18
2022-11-19T05:46:30.978Z,4.18
2022-11-19T05:49:00.053Z,7.40
2022-11-19T05:51:29.423Z,3.70
2022-11-19T05:53:58.550Z,5.00
2022-11-19T05:56:27.758Z,2.35
2022-11-19T05:58:56.778Z,4.03
2022-11-19T06:01:27.522Z,2.50
2022-11-19T06:03:58.517Z,4.45
2022-11-19T06:06:27.644Z,3.72
2022-11-19T06:08:56.709Z,4.25
2022-11-19T06:11:43.253Z,5.68
2022-11-19T06:14:12.310Z,7.57
2022-11-19T06:16:41.652Z,6.97
2022-11-19T06:19:12.236Z,5.35
2022-11-19T06:21:41.334Z,4.60
2022-11-19T06:24:10.384Z,5.88
2022-11-19T06:26:39.837Z,3.58
2022-11-19T06:29:09.117Z,8.57
2022-11-19T06:31:38.155Z,5.57
2022-11-19T06:34:07.583Z,8.38
2022-11-19T06:36:41.941Z,8.25
2022-11-19T06:39:12.840Z,7.82
2022-11-19T06:41:41.827Z,3.45
2022-11-19T06:44:10.825Z,5.50
2022-11-19T06:46:39.873Z,5.60
2022-11-19T06:49:12.224Z,4.18
2022-11-19T06:51:44.742Z,7.53
2022-11-19T06:54:13.881Z,4.70
2022-11-19T06:56:42.906Z,7.32
2022-11-19T06:59:11.849Z,10.70
2022-11-19T07:01:41.009Z,6.13
2022-11-19T07:04:10.061Z,5.78
2022-11-19T07:06:39.114Z,6.68
2022-11-19T07:09:09.590Z,7.50
2022-11-19T07:11:38.923Z,6.40
2022-11-19T07:14:08.475Z,6.47
2022-11-19T07:16:38.483Z,12.00
2022-11-19T07:19:09.181Z,7.35
2022-11-19T07:21:38.501Z,7.13
2022-11-19T07:24:10.886Z,5.07
2022-11-19T07:26:40.195Z,7.20
2022-11-19T07:29:10.091Z,3.35
2022-11-19T07:31:39.157Z,6.95
2022-11-19T07:34:08.625Z,12.30
2022-11-19T07:36:38.056Z,4.53
2022-11-19T07:39:07.408Z,7.47
2022-11-19T07:41:54.908Z,6.38
2022-11-19T07:44:24.029Z,7.47
2022-11-19T07:46:53.047Z,5.85
2022-11-19T07:49:23.078Z,7.45
2022-11-19T07:51:52.318Z,4.20
2022-11-19T07:54:21.840Z,8.05
2022-11-19T07:56:52.392Z,4.85
2022-11-19T07:59:21.879Z,5.47
2022-11-19T08:01:51.189Z,7.38
2022-11-19T08:04:20.282Z,9.27
2022-11-19T08:06:49.299Z,6.93
2022-11-19T08:09:18.597Z,8.02
2022-11-19T08:11:47.864Z,10.20
2022-11-19T08:14:18.276Z,5.82
2022-11-19T08:17:04.817Z,7.57
2022-11-19T08:19:33.830Z,5.63
2022-11-19T08:22:02.814Z,8.18
2022-11-19T08:24:31.899Z,7.47
2022-11-19T08:27:02.406Z,6.63
2022-11-19T08:29:32.934Z,6.63
2022-11-19T08:32:01.909Z,4.80
2022-11-19T08:34:32.221Z,9.02
2022-11-19T08:37:01.737Z,12.30
2022-11-19T08:39:33.688Z,8.15
2022-11-19T08:42:20.712Z,7.25
2022-11-19T08:44:51.252Z,5.60
2022-11-19T08:47:20.380Z,6.43
2022-11-19T08:49:49.569Z,11.75
2022-11-19T08:52:20.911Z,10.55
2022-11-19T08:54:54.865Z,5.55
2022-11-19T08:57:24.815Z,4.88
2022-11-19T08:59:55.825Z,6.75
2022-11-19T09:04:54.092Z,5.25
2022-11-19T09:07:23.339Z,5.22
2022-11-19T09:09:52.444Z,13.25
2022-11-19T09:12:21.628Z,14.10
2022-11-19T09:14:51.645Z,7.80
2022-11-19T09:17:22.150Z,8.43
2022-11-19T09:19:51.784Z,4.93
2022-11-19T09:22:20.978Z,9.13
2022-11-19T09:24:50.175Z,7.85
2022-11-19T09:27:19.433Z,5.22
2022-11-19T09:29:48.598Z,8.65
2022-11-19T09:32:22.434Z,12.38
2022-11-19T09:34:55.532Z,12.27
2022-11-19T09:37:24.608Z,10.73
2022-11-19T09:39:53.656Z,8.65
2022-11-19T09:42:30.702Z,5.43
2022-11-19T09:45:18.173Z,9.85
2022-11-19T09:47:59.509Z,6.22
2022-11-19T09:53:08.306Z,5.32
2022-11-19T09:55:41.421Z,4.95
2022-11-19T09:58:15.586Z,8.25
2022-11-19T10:00:45.959Z,7.15
2022-11-19T10:03:28.615Z,6.77
2022-11-19T10:06:19.714Z,6.07
2022-11-19T10:09:08.598Z,7.15
2022-11-19T10:11:48.051Z,4.80
2022-11-19T10:14:36.448Z,5.60
2022-11-19T10:17:16.246Z,5.43
2022-11-19T10:19:56.922Z,7.15
2022-11-19T10:22:37.335Z,4.18
2022-11-19T10:25:17.085Z,5.65
2022-11-19T10:27:51.340Z,6.95
2022-11-19T10:30:23.719Z,11.27
2022-11-19T10:32:58.514Z,9.98
2022-11-19T10:35:33.365Z,7.25
2022-11-19T10:38:06.602Z,9.50
2022-11-19T10:40:42.421Z,4.60
2022-11-19T10:43:23.128Z,7.70
2022-11-19T10:45:52.892Z,8.25
2022-11-19T10:48:23.674Z,10.48
2022-11-19T10:50:53.177Z,4.78
2022-11-19T10:53:28.594Z,5.78
2022-11-19T10:56:00.635Z,7.75
2022-11-19T10:58:33.798Z,4.60
2022-11-19T11:01:04.869Z,5.32
2022-11-19T11:03:39.205Z,6.93
2022-11-19T11:06:10.243Z,7.13
2022-11-19T11:08:51.810Z,8.98
2022-11-19T11:11:26.174Z,6.95
2022-11-19T11:14:13.049Z,8.57
2022-11-19T11:16:47.617Z,10.40
2022-11-19T11:19:20.586Z,7.55
2022-11-19T11:21:54.211Z,11.45
2022-11-19T11:24:33.207Z,9.38
2022-11-19T11:27:20.687Z,9.20
2022-11-19T11:29:50.044Z,9.93
2022-11-19T11:32:30.800Z,9.35
2022-11-19T11:35:03.614Z,5.47
2022-11-19T11:37:35.860Z,9.40
2022-11-19T11:40:08.444Z,8.60
2022-11-19T11:42:37.528Z,9.40
2022-11-19T11:45:09.376Z,8.18
2022-11-19T11:47:49.508Z,5.43
2022-11-19T11:50:24.444Z,8.60
2022-11-19T11:52:55.683Z,7.82
2022-11-19T11:58:05.529Z,10.40
2022-11-19T12:00:38.012Z,10.98
2022-11-19T12:03:09.151Z,10.32
2022-11-19T12:05:48.263Z,5.68
2022-11-19T12:08:33.759Z,11.77
2022-11-19T12:11:09.401Z,10.48
2022-11-19T12:13:53.285Z,4.10
2022-11-19T12:16:43.418Z,9.18
2022-11-19T12:19:33.772Z,7.32
2022-11-19T12:22:10.501Z,7.88
2022-11-19T12:24:57.316Z,8.65
2022-11-19T12:27:38.834Z,6.53
2022-11-19T12:30:20.253Z,7.03
2022-11-19T12:33:13.270Z,6.18
2022-11-19T12:35:54.077Z,9.75
2022-11-19T12:38:39.489Z,9.77
2022-11-19T12:41:26.567Z,12.35
2022-11-19T12:43:58.926Z,7.85
2022-11-19T12:46:46.952Z,9.23
2022-11-19T12:49:36.754Z,8.10
2022-11-19T12:52:21.718Z,7.90
2022-11-19T12:55:01.519Z,8.52
2022-11-19T12:57:44.474Z,11.02
2022-11-19T13:00:18.945Z,10.30
2022-11-19T13:03:01.737Z,9.88
2022-11-19T13:05:40.102Z,10.25
2022-11-19T13:08:17.982Z,7.30
2022-11-19T13:10:50.647Z,6.05
2022-11-19T13:13:27.019Z,11.02
2022-11-19T13:16:01.486Z,8.27
2022-11-19T13:18:34.250Z,11.52
2022-11-19T13:21:07.414Z,7.10
2022-11-19T13:23:41.232Z,9.70
2022-11-19T13:26:14.714Z,8.15
2022-11-19T13:28:47.288Z,7.53
2022-11-19T13:31:29.307Z,7.75
2022-11-19T13:34:02.548Z,8.23
2022-11-19T13:36:36.760Z,7.25
2022-11-19T13:39:13.573Z,8.90
2022-11-19T13:42:01.378Z,9.63
2022-11-19T13:44:41.155Z,4.75
2022-11-19T13:47:20.874Z,7.30
2022-11-19T13:49:53.733Z,8.23
2022-11-19T13:52:28.224Z,12.25
2022-11-19T13:54:58.739Z,7.40
2022-11-19T13:57:32.464Z,6.47
2022-11-19T14:00:07.867Z,10.32
2022-11-19T14:03:18.171Z,9.15
2022-11-19T14:06:15.715Z,6.75
2022-11-19T14:09:04.035Z,6.28
2022-11-19T14:12:02.466Z,8.35
2022-11-19T14:15:08.844Z,8.15
2022-11-19T14:18:02.695Z,8.35
2022-11-19T14:20:54.890Z,2.38
2022-11-19T14:24:00.877Z,5.55
2022-11-19T14:27:01.893Z,8.95
2022-11-19T14:29:53.535Z,6.35
2022-11-19T14:32:33.165Z,8.30
2022-11-19T14:35:28.580Z,7.05
2022-11-19T14:38:06.408Z,10.93
2022-11-19T14:40:40.861Z,4.65
2022-11-19T14:43:43.735Z,8.65
2022-11-19T14:46:29.779Z,8.05
2022-11-19T14:49:18.999Z,6.13
2022-11-19T14:51:54.228Z,10.52
2022-11-19T14:54:36.427Z,2.95
2022-11-19T14:57:08.969Z,4.78
2022-11-19T14:59:39.502Z,7.53
2022-11-19T15:02:24.920Z,12.43
2022-11-19T15:05:02.952Z,4.50
2022-11-19T15:07:44.520Z,5.15
2022-11-19T15:10:47.571Z,9.50
2022-11-19T15:13:23.588Z,8.05
2022-11-19T15:15:59.827Z,6.30
2022-11-19T15:19:02.044Z,7.38
2022-11-19T15:22:12.778Z,7.05
2022-11-19T15:25:00.657Z,7.75
2022-11-19T15:27:46.948Z,5.53
2022-11-19T15:30:19.540Z,3.05
2022-11-19T15:33:10.699Z,4.40
2022-11-19T15:36:17.215Z,4.38
2022-11-19T15:38:53.737Z,4.32
2022-11-19T15:41:24.990Z,2.42
2022-11-19T15:43:57.906Z,4.38
2022-11-19T15:46:35.595Z,6.90
2022-11-19T15:49:12.146Z,9.05
2022-11-19T15:51:58.097Z,7.43
2022-11-19T15:54:32.018Z,6.63
2022-11-19T15:57:05.633Z,10.25
2022-11-19T15:59:39.438Z,6.68
2022-11-19T16:02:20.333Z,5.70
2022-11-19T16:04:51.439Z,6.20
2022-11-19T16:07:25.686Z,16.63
2022-11-19T16:09:55.019Z,7.75
2022-11-19T16:12:43.513Z,9.20
2022-11-19T16:15:41.375Z,4.90
2022-11-19T16:18:20.586Z,5.43
2022-11-19T16:20:52.169Z,5.45
2022-11-19T16:23:23.668Z,4.35
2022-11-19T16:25:53.837Z,6.10
2022-11-19T16:28:26.886Z,4.70
2022-11-19T16:31:02.475Z,3.65
2022-11-19T16:33:33.215Z,4.47
2022-11-19T16:36:16.858Z,4.25
2022-11-19T16:38:49.733Z,6.25
2022-11-19T16:41:38.786Z,14.80
2022-11-19T16:44:12.680Z,4.82
2022-11-19T16:46:43.424Z,5.45
2022-11-19T16:49:30.148Z,5.13
2022-11-19T16:51:59.950Z,5.78
2022-11-19T16:54:48.947Z,4.05
2022-11-19T16:57:22.476Z,8.23
2022-11-19T16:59:54.217Z,36.60
2022-11-19T17:02:29.658Z,49.15
2022-11-19T17:05:07.213Z,9.40
2022-11-19T17:07:37.348Z,14.32
2022-11-19T17:10:30.251Z,9.23
2022-11-19T17:13:02.885Z,13.73
2022-11-19T17:15:38.680Z,12.80
2022-11-19T17:18:20.117Z,10.90
2022-11-19T17:23:23.631Z,16.38
2022-11-19T17:25:55.199Z,8.43
2022-11-19T17:28:31.363Z,7.97
2022-11-19T17:31:01.251Z,10.23
2022-11-19T17:33:35.671Z,15.90
2022-11-19T17:36:13.581Z,9.05
2022-11-19T17:38:42.897Z,9.95
2022-11-19T17:41:16.076Z,7.50
2022-11-19T17:44:02.432Z,4.88
2022-11-19T17:46:31.492Z,4.85
2022-11-19T17:49:01.895Z,6.07
2022-11-19T17:51:30.981Z,2.97
2022-11-19T17:54:00.642Z,5.18
2022-11-19T17:56:30.712Z,7.45
2022-11-19T17:59:01.134Z,3.45
2022-11-19T18:01:30.259Z,7.25
2022-11-19T18:03:59.418Z,5.47
2022-11-19T18:06:29.869Z,3.47
2022-11-19T18:08:58.957Z,5.90
2022-11-19T18:11:28.362Z,5.43
2022-11-19T18:13:59.872Z,6.88
2022-11-19T18:16:34.087Z,8.27
2022-11-19T18:19:03.149Z,5.13
2022-11-19T18:21:33.658Z,8.70
2022-11-19T18:24:02.705Z,6.88
2022-11-19T18:26:31.838Z,5.75
2022-11-19T18:29:00.804Z,5.15
2022-11-19T18:31:30.251Z,5.20
2022-11-19T18:33:59.358Z,11.43
2022-11-19T18:36:28.419Z,7.88
2022-11-19T18:38:58.831Z,6.28
2022-11-19T18:41:28.120Z,13.13
2022-11-19T18:44:14.258Z,11.50
2022-11-19T18:46:43.248Z,9.80
2022-11-19T18:49:12.183Z,5.90
2022-11-19T18:51:42.990Z,11.48
2022-11-19T18:54:14.159Z,10.63
2022-11-19T18:59:13.044Z,8.30
2022-11-19T19:01:42.341Z,6.53
2022-11-19T19:04:14.351Z,10.30
2022-11-19T19:06:43.796Z,8.00
2022-11-19T19:09:20.179Z,8.63
2022-11-19T19:12:13.165Z,8.52
2022-11-19T19:14:43.085Z,12.73
2022-11-19T19:17:12.434Z,29.77
2022-11-19T19:19:41.795Z,25.85
2022-11-19T19:22:10.892Z,10.02
2022-11-19T19:24:41.442Z,36.13
2022-11-19T19:27:11.192Z,9.05
2022-11-19T19:29:40.252Z,15.68
2022-11-19T19:32:09.822Z,20.70
2022-11-19T19:34:38.799Z,25.35
2022-11-19T19:37:07.804Z,7.57
2022-11-19T19:39:37.176Z,9.45
2022-11-19T19:42:07.807Z,6.43
2022-11-19T19:44:37.104Z,18.38
2022-11-19T19:47:06.987Z,13.80
2022-11-19T19:49:38.853Z,15.00
2022-11-19T19:52:08.276Z,6.70
2022-11-19T19:54:39.953Z,8.48
2022-11-19T19:57:10.360Z,12.88
2022-11-19T19:59:39.640Z,41.13
2022-11-19T20:02:10.229Z,10.48
2022-11-19T20:04:39.223Z,17.63
2022-11-19T20:07:08.380Z,28.52
2022-11-19T20:09:37.955Z,5.45
2022-11-19T20:12:07.672Z,4.47
2022-11-19T20:14:38.108Z,5.47
2022-11-19T20:17:07.163Z,4.67
2022-11-19T20:19:36.280Z,11.18
2022-11-19T20:22:05.324Z,17.05
2022-11-19T20:24:34.348Z,15.80
2022-11-19T20:27:03.359Z,13.68
2022-11-19T20:29:32.357Z,6.55
2022-11-19T20:32:02.818Z,8.63
2022-11-19T20:34:31.831Z,16.33
2022-11-19T20:37:00.891Z,8.07
2022-11-19T20:39:30.068Z,8.35
2022-11-19T20:42:16.409Z,5.57
2022-11-19T20:44:45.487Z,13.07
2022-11-19T20:47:15.971Z,4.63
2022-11-19T20:49:44.992Z,9.70
2022-11-19T20:52:15.705Z,14.30
2022-11-19T20:54:44.823Z,6.97
2022-11-19T20:57:14.163Z,6.90
2022-11-19T20:59:43.202Z,4.20
2022-11-19T21:02:12.434Z,7.60
2022-11-19T21:04:42.857Z,9.60
2022-11-19T21:07:12.140Z,6.27
2022-11-19T21:09:43.020Z,15.65
2022-11-19T21:12:12.095Z,7.28
2022-11-19T21:14:41.247Z,5.43
2022-11-19T21:17:10.469Z,6.30
2022-11-19T21:19:39.828Z,6.82
2022-11-19T21:22:10.190Z,7.40
2022-11-19T21:24:39.146Z,5.73
2022-11-19T21:27:08.117Z,5.90
2022-11-19T21:29:38.612Z,5.80
2022-11-19T21:32:08.337Z,5.85
2022-11-19T21:34:39.229Z,4.70
2022-11-19T21:37:11.117Z,5.35
2022-11-19T21:39:40.193Z,4.70
2022-11-19T21:42:09.292Z,5.53
2022-11-19T21:44:38.381Z,4.38
2022-11-19T21:47:07.384Z,22.75
2022-11-19T21:49:36.392Z,6.95
2022-11-19T21:52:05.376Z,16.40
2022-11-19T21:54:35.790Z,12.65
2022-11-19T21:57:04.958Z,55.03
2022-11-19T21:59:34.116Z,51.45
2022-11-19T22:02:03.216Z,26.60
2022-11-19T22:04:32.192Z,106.97
2022-11-19T22:07:01.281Z,53.10
2022-11-19T22:09:30.342Z,125.32
2022-11-19T22:12:00.719Z,87.85
2022-11-19T22:14:29.743Z,49.60
2022-11-19T22:16:58.753Z,28.92
2022-11-19T22:19:27.763Z,41.25
2022-11-19T22:21:56.878Z,33.53
2022-11-19T22:24:25.996Z,41.13
2022-11-19T22:26:54.982Z,27.05
2022-11-19T22:29:25.491Z,12.63
2022-11-19T22:31:54.517Z,5.55
2022-11-19T22:34:23.539Z,5.85
2022-11-19T22:36:52.554Z,4.72
2022-11-19T22:39:21.792Z,7.22
2022-11-19T22:41:50.893Z,7.18
2022-11-19T22:44:20.276Z,5.32
2022-11-19T22:46:50.831Z,5.30
2022-11-19T22:49:20.270Z,2.38
2022-11-19T22:51:49.437Z,6.68
2022-11-19T22:54:18.544Z,11.18
2022-11-19T22:56:47.867Z,12.63
2022-11-19T22:59:16.985Z,24.33
2022-11-19T23:01:46.057Z,14.88
2022-11-19T23:04:16.622Z,18.70
2022-11-19T23:06:45.831Z,23.77
2022-11-19T23:09:14.827Z,19.30
2022-11-19T23:12:01.825Z,18.20
2022-11-19T23:14:31.186Z,22.65
2022-11-19T23:17:00.171Z,16.83
2022-11-19T23:19:30.559Z,16.00
2022-11-19T23:21:59.534Z,16.57
2022-11-19T23:24:28.473Z,23.92
2022-11-19T23:26:57.441Z,32.83
2022-11-19T23:29:26.442Z,19.88
2022-11-19T23:31:55.443Z,24.40
2022-11-19T23:34:24.413Z,22.90
2022-11-19T23:36:54.803Z,23.17
2022-11-19T23:39:24.017Z,24.87
2022-11-19T23:41:53.159Z,21.58
2022-11-19T23:44:22.178Z,28.23
2022-11-19T23:46:51.183Z,23.60
2022-11-19T23:49:20.485Z,26.67
2022-11-19T23:51:49.660Z,32.95
2022-11-19T23:54:19.983Z,35.50
2022-11-19T23:56:49.027Z,30.60
2022-11-19T23:59:23.020Z,27.40
